sensor_id;sensor_type;location;lat;lon;timestamp;temperature;humidity
11700;DHT22;5906;51.660;6.674;2023-05-27T00:02:10;9.50;99.90
11700;DHT22;5906;51.660;6.674;2023-05-27T00:04:37;9.40;99.90
11700;DHT22;5906;51.660;6.674;2023-05-27T00:07:04;9.50;99.90
11700;DHT22;5906;51.660;6.674;2023-05-27T00:09:31;9.50;99.90
11700;DHT22;5906;51.660;6.674;2023-05-27T00:11:58;9.50;99.90
11700;DHT22;5906;51.660;6.674;2023-05-27T00:14:26;9.40;99.90
11700;DHT22;5906;51.660;6.674;2023-05-27T00:16:52;9.30;99.90
11700;DHT22;5906;51.660;6.674;2023-05-27T00:19:20;9.40;99.90
11700;DHT22;5906;51.660;6.674;2023-05-27T00:21:47;9.30;99.90
11700;DHT22;5906;51.660;6.674;2023-05-27T00:24:14;9.30;99.90
11700;DHT22;5906;51.660;6.674;2023-05-27T00:26:41;9.20;99.90
11700;DHT22;5906;51.660;6.674;2023-05-27T00:29:09;9.20;99.90
11700;DHT22;5906;51.660;6.674;2023-05-27T00:31:36;9.10;99.90
11700;DHT22;5906;51.660;6.674;2023-05-27T00:34:03;9.10;99.90
11700;DHT22;5906;51.660;6.674;2023-05-27T00:36:30;9.10;99.90
11700;DHT22;5906;51.660;6.674;2023-05-27T00:39:00;9.00;99.90
11700;DHT22;5906;51.660;6.674;2023-05-27T00:41:28;9.00;99.90
11700;DHT22;5906;51.660;6.674;2023-05-27T00:43:56;8.90;99.90
11700;DHT22;5906;51.660;6.674;2023-05-27T00:46:23;8.90;99.90
11700;DHT22;5906;51.660;6.674;2023-05-27T00:48:51;8.90;99.90
11700;DHT22;5906;51.660;6.674;2023-05-27T00:51:18;8.80;99.90
11700;DHT22;5906;51.660;6.674;2023-05-27T00:53:46;8.70;99.90
11700;DHT22;5906;51.660;6.674;2023-05-27T00:56:13;8.70;99.90
11700;DHT22;5906;51.660;6.674;2023-05-27T00:58:43;8.70;99.90
11700;DHT22;5906;51.660;6.674;2023-05-27T01:01:10;8.70;99.90
11700;DHT22;5906;51.660;6.674;2023-05-27T01:03:38;8.70;99.90
11700;DHT22;5906;51.660;6.674;2023-05-27T01:11:42;8.50;99.90
11700;DHT22;5906;51.660;6.674;2023-05-27T01:14:13;8.50;99.90
11700;DHT22;5906;51.660;6.674;2023-05-27T01:16:42;8.40;99.90
11700;DHT22;5906;51.660;6.674;2023-05-27T01:19:28;8.40;99.90
11700;DHT22;5906;51.660;6.674;2023-05-27T01:22:00;8.40;99.90
11700;DHT22;5906;51.660;6.674;2023-05-27T01:24:28;8.30;99.90
11700;DHT22;5906;51.660;6.674;2023-05-27T01:26:55;8.30;99.90
11700;DHT22;5906;51.660;6.674;2023-05-27T01:29:28;8.30;99.90
11700;DHT22;5906;51.660;6.674;2023-05-27T01:34:34;8.20;99.90
11700;DHT22;5906;51.660;6.674;2023-05-27T01:37:05;8.30;99.90
11700;DHT22;5906;51.660;6.674;2023-05-27T01:39:33;8.30;99.90
11700;DHT22;5906;51.660;6.674;2023-05-27T01:42:01;8.30;99.90
11700;DHT22;5906;51.660;6.674;2023-05-27T01:44:30;8.30;99.90
11700;DHT22;5906;51.660;6.674;2023-05-27T01:47:03;8.20;99.90
11700;DHT22;5906;51.660;6.674;2023-05-27T01:49:31;8.20;99.90
11700;DHT22;5906;51.660;6.674;2023-05-27T01:51:58;8.20;99.90
11700;DHT22;5906;51.660;6.674;2023-05-27T01:54:25;8.20;99.90
11700;DHT22;5906;51.660;6.674;2023-05-27T01:56:52;8.20;99.90
11700;DHT22;5906;51.660;6.674;2023-05-27T01:59:19;8.20;99.90
11700;DHT22;5906;51.660;6.674;2023-05-27T02:01:46;8.10;99.90
11700;DHT22;5906;51.660;6.674;2023-05-27T02:04:14;8.00;99.90
11700;DHT22;5906;51.660;6.674;2023-05-27T02:06:41;8.00;99.90
11700;DHT22;5906;51.660;6.674;2023-05-27T02:09:08;8.00;99.90
11700;DHT22;5906;51.660;6.674;2023-05-27T02:11:38;8.00;99.90
11700;DHT22;5906;51.660;6.674;2023-05-27T02:14:05;7.90;99.90
11700;DHT22;5906;51.660;6.674;2023-05-27T02:16:34;7.90;99.90
11700;DHT22;5906;51.660;6.674;2023-05-27T02:19:01;8.00;99.90
11700;DHT22;5906;51.660;6.674;2023-05-27T02:21:28;8.00;99.90
11700;DHT22;5906;51.660;6.674;2023-05-27T02:23:56;7.90;99.90
11700;DHT22;5906;51.660;6.674;2023-05-27T02:26:25;8.00;99.90
11700;DHT22;5906;51.660;6.674;2023-05-27T02:28:53;7.90;99.90
11700;DHT22;5906;51.660;6.674;2023-05-27T02:31:20;7.90;99.90
11700;DHT22;5906;51.660;6.674;2023-05-27T02:33:47;7.80;99.90
11700;DHT22;5906;51.660;6.674;2023-05-27T02:36:15;7.80;99.90
11700;DHT22;5906;51.660;6.674;2023-05-27T02:38:42;7.70;99.90
11700;DHT22;5906;51.660;6.674;2023-05-27T02:41:09;7.80;99.90
11700;DHT22;5906;51.660;6.674;2023-05-27T02:43:36;7.80;99.90
11700;DHT22;5906;51.660;6.674;2023-05-27T02:46:03;7.70;99.90
11700;DHT22;5906;51.660;6.674;2023-05-27T02:48:30;7.70;99.90
11700;DHT22;5906;51.660;6.674;2023-05-27T02:50:57;7.70;99.90
11700;DHT22;5906;51.660;6.674;2023-05-27T02:53:24;7.60;99.90
11700;DHT22;5906;51.660;6.674;2023-05-27T02:55:51;7.60;99.90
11700;DHT22;5906;51.660;6.674;2023-05-27T02:58:20;7.60;99.90
11700;DHT22;5906;51.660;6.674;2023-05-27T03:00:46;7.50;99.90
11700;DHT22;5906;51.660;6.674;2023-05-27T03:03:14;7.50;99.90
11700;DHT22;5906;51.660;6.674;2023-05-27T03:05:41;7.50;99.90
11700;DHT22;5906;51.660;6.674;2023-05-27T03:08:08;7.50;99.90
11700;DHT22;5906;51.660;6.674;2023-05-27T03:10:35;7.40;99.90
11700;DHT22;5906;51.660;6.674;2023-05-27T03:13:02;7.40;99.90
11700;DHT22;5906;51.660;6.674;2023-05-27T03:15:29;7.50;99.90
11700;DHT22;5906;51.660;6.674;2023-05-27T03:17:57;7.50;99.90
11700;DHT22;5906;51.660;6.674;2023-05-27T03:20:24;7.40;99.90
11700;DHT22;5906;51.660;6.674;2023-05-27T03:22:51;7.40;99.90
11700;DHT22;5906;51.660;6.674;2023-05-27T03:25:18;7.40;99.90
11700;DHT22;5906;51.660;6.674;2023-05-27T03:27:46;7.30;99.90
11700;DHT22;5906;51.660;6.674;2023-05-27T03:30:13;7.30;99.90
11700;DHT22;5906;51.660;6.674;2023-05-27T03:32:41;7.30;99.90
11700;DHT22;5906;51.660;6.674;2023-05-27T03:35:08;7.20;99.90
11700;DHT22;5906;51.660;6.674;2023-05-27T03:37:35;7.20;99.90
11700;DHT22;5906;51.660;6.674;2023-05-27T03:40:03;7.10;99.90
11700;DHT22;5906;51.660;6.674;2023-05-27T03:42:31;7.10;99.90
11700;DHT22;5906;51.660;6.674;2023-05-27T03:44:58;7.10;99.90
11700;DHT22;5906;51.660;6.674;2023-05-27T03:47:25;7.10;99.90
11700;DHT22;5906;51.660;6.674;2023-05-27T03:49:52;7.10;99.90
11700;DHT22;5906;51.660;6.674;2023-05-27T03:52:19;7.10;99.90
11700;DHT22;5906;51.660;6.674;2023-05-27T03:54:46;7.10;99.90
11700;DHT22;5906;51.660;6.674;2023-05-27T03:57:13;7.10;99.90
11700;DHT22;5906;51.660;6.674;2023-05-27T03:59:40;7.10;99.90
11700;DHT22;5906;51.660;6.674;2023-05-27T04:02:07;7.10;99.90
11700;DHT22;5906;51.660;6.674;2023-05-27T04:04:34;7.10;99.90
11700;DHT22;5906;51.660;6.674;2023-05-27T04:07:02;7.10;99.90
11700;DHT22;5906;51.660;6.674;2023-05-27T04:09:29;7.20;99.90
11700;DHT22;5906;51.660;6.674;2023-05-27T04:11:57;7.30;99.90
11700;DHT22;5906;51.660;6.674;2023-05-27T04:14:24;7.30;99.90
11700;DHT22;5906;51.660;6.674;2023-05-27T04:16:51;7.30;99.90
11700;DHT22;5906;51.660;6.674;2023-05-27T04:19:18;7.40;99.90
11700;DHT22;5906;51.660;6.674;2023-05-27T04:21:45;7.40;99.90
11700;DHT22;5906;51.660;6.674;2023-05-27T04:24:13;7.50;99.90
11700;DHT22;5906;51.660;6.674;2023-05-27T04:26:40;7.60;99.90
11700;DHT22;5906;51.660;6.674;2023-05-27T04:29:08;7.60;99.90
11700;DHT22;5906;51.660;6.674;2023-05-27T04:31:39;7.70;99.90
11700;DHT22;5906;51.660;6.674;2023-05-27T04:34:06;7.80;99.90
11700;DHT22;5906;51.660;6.674;2023-05-27T04:36:34;7.80;99.90
11700;DHT22;5906;51.660;6.674;2023-05-27T04:39:04;7.90;99.90
11700;DHT22;5906;51.660;6.674;2023-05-27T04:41:31;8.00;99.90
11700;DHT22;5906;51.660;6.674;2023-05-27T04:43:59;8.10;99.90
11700;DHT22;5906;51.660;6.674;2023-05-27T04:46:29;8.40;99.90
11700;DHT22;5906;51.660;6.674;2023-05-27T04:48:56;8.70;99.90
11700;DHT22;5906;51.660;6.674;2023-05-27T04:51:23;9.00;99.90
11700;DHT22;5906;51.660;6.674;2023-05-27T04:53:50;9.30;99.90
11700;DHT22;5906;51.660;6.674;2023-05-27T04:56:18;9.50;1.00
11700;DHT22;5906;51.660;6.674;2023-05-27T04:58:45;9.70;99.90
11700;DHT22;5906;51.660;6.674;2023-05-27T05:01:15;9.80;99.90
11700;DHT22;5906;51.660;6.674;2023-05-27T05:03:47;9.90;99.90
11700;DHT22;5906;51.660;6.674;2023-05-27T05:06:20;10.10;99.90
11700;DHT22;5906;51.660;6.674;2023-05-27T05:08:49;10.30;99.90
11700;DHT22;5906;51.660;6.674;2023-05-27T05:11:16;10.40;99.90
11700;DHT22;5906;51.660;6.674;2023-05-27T05:13:43;10.50;99.90
11700;DHT22;5906;51.660;6.674;2023-05-27T05:16:10;10.70;99.90
11700;DHT22;5906;51.660;6.674;2023-05-27T05:18:37;10.80;99.90
11700;DHT22;5906;51.660;6.674;2023-05-27T05:21:04;10.90;99.90
11700;DHT22;5906;51.660;6.674;2023-05-27T05:23:31;11.10;99.90
11700;DHT22;5906;51.660;6.674;2023-05-27T05:25:59;11.20;99.90
11700;DHT22;5906;51.660;6.674;2023-05-27T05:28:33;11.40;99.90
11700;DHT22;5906;51.660;6.674;2023-05-27T05:31:01;11.30;99.90
11700;DHT22;5906;51.660;6.674;2023-05-27T05:33:28;11.30;99.90
11700;DHT22;5906;51.660;6.674;2023-05-27T05:35:55;11.40;99.90
11700;DHT22;5906;51.660;6.674;2023-05-27T05:38:22;11.40;99.90
11700;DHT22;5906;51.660;6.674;2023-05-27T05:40:49;11.50;99.90
11700;DHT22;5906;51.660;6.674;2023-05-27T05:43:20;11.60;99.90
11700;DHT22;5906;51.660;6.674;2023-05-27T05:45:47;11.70;99.90
11700;DHT22;5906;51.660;6.674;2023-05-27T05:48:14;11.90;99.90
11700;DHT22;5906;51.660;6.674;2023-05-27T05:50:41;11.90;99.90
11700;DHT22;5906;51.660;6.674;2023-05-27T05:53:10;12.10;99.90
11700;DHT22;5906;51.660;6.674;2023-05-27T05:55:37;12.20;99.90
11700;DHT22;5906;51.660;6.674;2023-05-27T05:58:04;12.20;99.90
11700;DHT22;5906;51.660;6.674;2023-05-27T06:00:31;12.40;99.90
11700;DHT22;5906;51.660;6.674;2023-05-27T06:02:58;12.40;99.90
11700;DHT22;5906;51.660;6.674;2023-05-27T06:05:27;12.50;99.90
11700;DHT22;5906;51.660;6.674;2023-05-27T06:07:54;12.60;99.90
11700;DHT22;5906;51.660;6.674;2023-05-27T06:10:21;12.60;99.90
11700;DHT22;5906;51.660;6.674;2023-05-27T06:12:48;12.50;99.90
11700;DHT22;5906;51.660;6.674;2023-05-27T06:15:15;12.60;99.90
11700;DHT22;5906;51.660;6.674;2023-05-27T06:17:43;12.60;99.90
11700;DHT22;5906;51.660;6.674;2023-05-27T06:20:10;12.60;99.90
11700;DHT22;5906;51.660;6.674;2023-05-27T06:22:37;12.70;99.90
11700;DHT22;5906;51.660;6.674;2023-05-27T06:25:05;12.70;99.90
11700;DHT22;5906;51.660;6.674;2023-05-27T06:27:33;12.80;99.90
11700;DHT22;5906;51.660;6.674;2023-05-27T06:30:00;12.90;99.90
11700;DHT22;5906;51.660;6.674;2023-05-27T06:32:27;13.10;99.90
11700;DHT22;5906;51.660;6.674;2023-05-27T06:34:54;13.20;99.90
11700;DHT22;5906;51.660;6.674;2023-05-27T06:37:21;13.40;99.90
11700;DHT22;5906;51.660;6.674;2023-05-27T06:39:48;13.60;99.90
11700;DHT22;5906;51.660;6.674;2023-05-27T06:42:15;13.70;99.90
11700;DHT22;5906;51.660;6.674;2023-05-27T06:44:43;13.90;99.90
11700;DHT22;5906;51.660;6.674;2023-05-27T06:47:10;14.10;99.90
11700;DHT22;5906;51.660;6.674;2023-05-27T06:49:37;14.30;99.90
11700;DHT22;5906;51.660;6.674;2023-05-27T06:52:05;14.30;99.90
11700;DHT22;5906;51.660;6.674;2023-05-27T06:54:35;14.60;99.90
11700;DHT22;5906;51.660;6.674;2023-05-27T06:57:03;14.60;99.90
11700;DHT22;5906;51.660;6.674;2023-05-27T06:59:30;14.80;99.90
11700;DHT22;5906;51.660;6.674;2023-05-27T07:01:58;14.90;99.90
11700;DHT22;5906;51.660;6.674;2023-05-27T07:04:25;15.00;99.90
11700;DHT22;5906;51.660;6.674;2023-05-27T07:06:53;15.10;99.90
11700;DHT22;5906;51.660;6.674;2023-05-27T07:09:20;15.30;99.90
11700;DHT22;5906;51.660;6.674;2023-05-27T07:11:47;15.60;99.90
11700;DHT22;5906;51.660;6.674;2023-05-27T07:14:15;15.80;1.00
11700;DHT22;5906;51.660;6.674;2023-05-27T07:16:42;15.90;1.00
11700;DHT22;5906;51.660;6.674;2023-05-27T07:19:09;15.90;1.00
11700;DHT22;5906;51.660;6.674;2023-05-27T07:21:36;16.00;1.00
11700;DHT22;5906;51.660;6.674;2023-05-27T07:24:04;16.20;1.00
11700;DHT22;5906;51.660;6.674;2023-05-27T07:26:32;16.30;99.90
11700;DHT22;5906;51.660;6.674;2023-05-27T07:29:00;16.50;99.90
11700;DHT22;5906;51.660;6.674;2023-05-27T07:31:28;16.70;99.90
11700;DHT22;5906;51.660;6.674;2023-05-27T07:33:55;16.60;99.90
11700;DHT22;5906;51.660;6.674;2023-05-27T07:36:22;16.80;99.90
11700;DHT22;5906;51.660;6.674;2023-05-27T07:38:49;17.00;99.90
11700;DHT22;5906;51.660;6.674;2023-05-27T07:41:19;17.00;99.90
11700;DHT22;5906;51.660;6.674;2023-05-27T07:43:47;17.30;99.90
11700;DHT22;5906;51.660;6.674;2023-05-27T07:46:14;17.40;99.90
11700;DHT22;5906;51.660;6.674;2023-05-27T07:48:41;17.80;99.90
11700;DHT22;5906;51.660;6.674;2023-05-27T07:51:08;18.10;99.90
11700;DHT22;5906;51.660;6.674;2023-05-27T07:53:36;18.30;99.90
11700;DHT22;5906;51.660;6.674;2023-05-27T07:56:03;18.20;99.90
11700;DHT22;5906;51.660;6.674;2023-05-27T07:58:31;18.20;99.90
11700;DHT22;5906;51.660;6.674;2023-05-27T08:00:58;18.40;99.90
11700;DHT22;5906;51.660;6.674;2023-05-27T08:03:26;18.50;99.90
11700;DHT22;5906;51.660;6.674;2023-05-27T08:05:53;18.60;99.90
11700;DHT22;5906;51.660;6.674;2023-05-27T08:08:20;18.50;1.00
11700;DHT22;5906;51.660;6.674;2023-05-27T08:10:47;18.50;1.00
11700;DHT22;5906;51.660;6.674;2023-05-27T08:13:14;18.60;1.00
11700;DHT22;5906;51.660;6.674;2023-05-27T08:15:41;18.70;1.00
11700;DHT22;5906;51.660;6.674;2023-05-27T08:18:08;19.20;1.00
11700;DHT22;5906;51.660;6.674;2023-05-27T08:20:36;19.60;1.00
11700;DHT22;5906;51.660;6.674;2023-05-27T08:23:03;20.00;16.40
11700;DHT22;5906;51.660;6.674;2023-05-27T08:25:32;20.00;84.00
11700;DHT22;5906;51.660;6.674;2023-05-27T08:27:59;20.10;76.60
11700;DHT22;5906;51.660;6.674;2023-05-27T08:30:29;20.10;76.90
11700;DHT22;5906;51.660;6.674;2023-05-27T08:32:57;20.40;80.60
11700;DHT22;5906;51.660;6.674;2023-05-27T08:35:24;20.40;68.40
11700;DHT22;5906;51.660;6.674;2023-05-27T08:37:51;20.20;72.00
11700;DHT22;5906;51.660;6.674;2023-05-27T08:40:19;20.50;66.00
11700;DHT22;5906;51.660;6.674;2023-05-27T08:42:47;20.40;60.80
11700;DHT22;5906;51.660;6.674;2023-05-27T08:45:15;20.50;66.20
11700;DHT22;5906;51.660;6.674;2023-05-27T08:47:42;20.80;66.30
11700;DHT22;5906;51.660;6.674;2023-05-27T08:50:10;20.70;60.50
11700;DHT22;5906;51.660;6.674;2023-05-27T08:52:47;20.70;57.10
11700;DHT22;5906;51.660;6.674;2023-05-27T08:55:16;20.70;59.50
11700;DHT22;5906;51.660;6.674;2023-05-27T08:57:51;20.60;60.50
11700;DHT22;5906;51.660;6.674;2023-05-27T09:00:18;20.60;60.40
11700;DHT22;5906;51.660;6.674;2023-05-27T09:02:46;20.80;62.90
11700;DHT22;5906;51.660;6.674;2023-05-27T09:05:15;21.10;59.20
11700;DHT22;5906;51.660;6.674;2023-05-27T09:07:43;21.00;51.90
11700;DHT22;5906;51.660;6.674;2023-05-27T09:10:11;21.00;54.30
11700;DHT22;5906;51.660;6.674;2023-05-27T09:12:38;21.20;55.60
11700;DHT22;5906;51.660;6.674;2023-05-27T09:15:09;21.20;57.00
11700;DHT22;5906;51.660;6.674;2023-05-27T09:17:44;21.40;49.70
11700;DHT22;5906;51.660;6.674;2023-05-27T09:20:11;21.50;49.60
11700;DHT22;5906;51.660;6.674;2023-05-27T09:22:40;21.50;50.10
11700;DHT22;5906;51.660;6.674;2023-05-27T09:25:08;21.40;44.40
11700;DHT22;5906;51.660;6.674;2023-05-27T09:27:38;21.40;43.40
11700;DHT22;5906;51.660;6.674;2023-05-27T09:30:09;21.50;46.20
11700;DHT22;5906;51.660;6.674;2023-05-27T09:32:36;21.70;44.80
11700;DHT22;5906;51.660;6.674;2023-05-27T09:35:06;21.80;45.30
11700;DHT22;5906;51.660;6.674;2023-05-27T09:37:34;21.80;41.50
11700;DHT22;5906;51.660;6.674;2023-05-27T09:40:11;22.10;36.70
11700;DHT22;5906;51.660;6.674;2023-05-27T09:42:45;22.30;42.00
11700;DHT22;5906;51.660;6.674;2023-05-27T09:45:18;22.30;39.40
11700;DHT22;5906;51.660;6.674;2023-05-27T09:47:51;22.20;42.60
11700;DHT22;5906;51.660;6.674;2023-05-27T09:50:19;22.20;35.70
11700;DHT22;5906;51.660;6.674;2023-05-27T09:52:48;22.30;33.40
11700;DHT22;5906;51.660;6.674;2023-05-27T09:55:31;22.60;37.00
11700;DHT22;5906;51.660;6.674;2023-05-27T09:57:59;23.10;26.90
11700;DHT22;5906;51.660;6.674;2023-05-27T10:00:28;23.00;24.00
11700;DHT22;5906;51.660;6.674;2023-05-27T10:02:57;22.80;26.50
11700;DHT22;5906;51.660;6.674;2023-05-27T10:05:26;23.00;23.30
11700;DHT22;5906;51.660;6.674;2023-05-27T10:07:54;22.90;22.40
11700;DHT22;5906;51.660;6.674;2023-05-27T10:10:41;23.20;19.30
11700;DHT22;5906;51.660;6.674;2023-05-27T10:13:10;23.10;19.20
11700;DHT22;5906;51.660;6.674;2023-05-27T10:15:38;23.30;18.40
11700;DHT22;5906;51.660;6.674;2023-05-27T10:18:07;23.50;20.10
11700;DHT22;5906;51.660;6.674;2023-05-27T10:20:38;23.20;17.20
11700;DHT22;5906;51.660;6.674;2023-05-27T10:25:57;23.00;16.00
11700;DHT22;5906;51.660;6.674;2023-05-27T10:28:32;23.20;29.90
11700;DHT22;5906;51.660;6.674;2023-05-27T10:31:15;23.30;29.90
11700;DHT22;5906;51.660;6.674;2023-05-27T10:33:44;23.30;29.20
11700;DHT22;5906;51.660;6.674;2023-05-27T10:36:13;23.60;26.70
11700;DHT22;5906;51.660;6.674;2023-05-27T10:38:42;23.80;24.50
11700;DHT22;5906;51.660;6.674;2023-05-27T10:41:09;23.60;23.20
11700;DHT22;5906;51.660;6.674;2023-05-27T10:43:37;23.80;20.60
11700;DHT22;5906;51.660;6.674;2023-05-27T10:46:08;23.90;18.50
11700;DHT22;5906;51.660;6.674;2023-05-27T10:48:37;23.40;21.80
11700;DHT22;5906;51.660;6.674;2023-05-27T10:51:06;23.30;23.70
11700;DHT22;5906;51.660;6.674;2023-05-27T10:53:36;23.40;22.00
11700;DHT22;5906;51.660;6.674;2023-05-27T10:56:04;24.00;17.40
11700;DHT22;5906;51.660;6.674;2023-05-27T10:58:36;24.30;12.60
11700;DHT22;5906;51.660;6.674;2023-05-27T11:01:14;24.30;8.60
11700;DHT22;5906;51.660;6.674;2023-05-27T11:03:44;24.00;8.90
11700;DHT22;5906;51.660;6.674;2023-05-27T11:06:13;24.20;8.80
11700;DHT22;5906;51.660;6.674;2023-05-27T11:08:42;24.10;7.10
11700;DHT22;5906;51.660;6.674;2023-05-27T11:11:11;24.30;5.60
11700;DHT22;5906;51.660;6.674;2023-05-27T11:13:45;24.50;3.50
11700;DHT22;5906;51.660;6.674;2023-05-27T11:16:15;24.60;1.20
11700;DHT22;5906;51.660;6.674;2023-05-27T11:18:45;24.60;3.20
11700;DHT22;5906;51.660;6.674;2023-05-27T11:21:16;24.80;1.00
11700;DHT22;5906;51.660;6.674;2023-05-27T11:23:48;25.00;1.00
11700;DHT22;5906;51.660;6.674;2023-05-27T11:26:20;24.90;1.00
11700;DHT22;5906;51.660;6.674;2023-05-27T11:28:53;24.40;1.00
11700;DHT22;5906;51.660;6.674;2023-05-27T11:31:28;24.40;1.00
11700;DHT22;5906;51.660;6.674;2023-05-27T11:33:56;24.40;1.00
11700;DHT22;5906;51.660;6.674;2023-05-27T11:36:28;24.50;1.00
11700;DHT22;5906;51.660;6.674;2023-05-27T11:39:00;24.70;1.00
11700;DHT22;5906;51.660;6.674;2023-05-27T11:41:29;24.80;1.00
11700;DHT22;5906;51.660;6.674;2023-05-27T11:44:01;24.80;1.00
11700;DHT22;5906;51.660;6.674;2023-05-27T11:46:34;24.60;1.00
11700;DHT22;5906;51.660;6.674;2023-05-27T11:49:07;24.20;1.00
11700;DHT22;5906;51.660;6.674;2023-05-27T11:51:37;24.30;1.00
11700;DHT22;5906;51.660;6.674;2023-05-27T11:54:03;24.30;1.00
11700;DHT22;5906;51.660;6.674;2023-05-27T11:56:31;24.50;1.00
11700;DHT22;5906;51.660;6.674;2023-05-27T11:58:58;24.40;1.00
11700;DHT22;5906;51.660;6.674;2023-05-27T12:01:25;24.30;1.00
11700;DHT22;5906;51.660;6.674;2023-05-27T12:03:53;24.40;6.00
11700;DHT22;5906;51.660;6.674;2023-05-27T12:06:20;24.20;1.00
11700;DHT22;5906;51.660;6.674;2023-05-27T12:08:47;24.40;1.00
11700;DHT22;5906;51.660;6.674;2023-05-27T12:11:14;24.70;1.00
11700;DHT22;5906;51.660;6.674;2023-05-27T12:13:41;24.80;1.00
11700;DHT22;5906;51.660;6.674;2023-05-27T12:16:09;24.90;1.00
11700;DHT22;5906;51.660;6.674;2023-05-27T12:18:37;25.10;1.00
11700;DHT22;5906;51.660;6.674;2023-05-27T12:21:05;25.10;1.00
11700;DHT22;5906;51.660;6.674;2023-05-27T12:23:32;24.90;1.00
11700;DHT22;5906;51.660;6.674;2023-05-27T12:25:59;25.00;1.00
11700;DHT22;5906;51.660;6.674;2023-05-27T12:28:26;25.00;1.00
11700;DHT22;5906;51.660;6.674;2023-05-27T12:30:53;25.00;1.00
11700;DHT22;5906;51.660;6.674;2023-05-27T12:33:21;24.90;1.00
11700;DHT22;5906;51.660;6.674;2023-05-27T12:35:49;24.90;1.00
11700;DHT22;5906;51.660;6.674;2023-05-27T12:38:16;24.70;1.00
11700;DHT22;5906;51.660;6.674;2023-05-27T12:40:43;24.50;1.00
11700;DHT22;5906;51.660;6.674;2023-05-27T12:43:11;24.30;1.00
11700;DHT22;5906;51.660;6.674;2023-05-27T12:49:25;24.60;1.00
11700;DHT22;5906;51.660;6.674;2023-05-27T12:51:53;24.70;1.00
11700;DHT22;5906;51.660;6.674;2023-05-27T12:54:20;24.70;1.00
11700;DHT22;5906;51.660;6.674;2023-05-27T12:56:47;24.70;1.00
11700;DHT22;5906;51.660;6.674;2023-05-27T12:59:15;24.80;1.00
11700;DHT22;5906;51.660;6.674;2023-05-27T13:01:42;25.10;1.00
11700;DHT22;5906;51.660;6.674;2023-05-27T13:04:09;25.20;1.00
11700;DHT22;5906;51.660;6.674;2023-05-27T13:06:36;25.20;1.00
11700;DHT22;5906;51.660;6.674;2023-05-27T13:09:04;25.10;1.00
11700;DHT22;5906;51.660;6.674;2023-05-27T13:11:33;25.10;1.00
11700;DHT22;5906;51.660;6.674;2023-05-27T13:14:01;25.20;1.00
11700;DHT22;5906;51.660;6.674;2023-05-27T13:16:28;25.20;1.00
11700;DHT22;5906;51.660;6.674;2023-05-27T13:18:55;25.50;1.00
11700;DHT22;5906;51.660;6.674;2023-05-27T13:21:22;25.30;1.00
11700;DHT22;5906;51.660;6.674;2023-05-27T13:23:49;25.30;1.00
11700;DHT22;5906;51.660;6.674;2023-05-27T13:26:17;25.20;1.00
11700;DHT22;5906;51.660;6.674;2023-05-27T13:28:44;25.20;1.00
11700;DHT22;5906;51.660;6.674;2023-05-27T13:31:11;25.30;1.00
11700;DHT22;5906;51.660;6.674;2023-05-27T13:33:39;25.40;1.00
11700;DHT22;5906;51.660;6.674;2023-05-27T13:36:06;25.20;1.00
11700;DHT22;5906;51.660;6.674;2023-05-27T13:38:33;25.50;1.00
11700;DHT22;5906;51.660;6.674;2023-05-27T13:41:01;25.50;1.00
11700;DHT22;5906;51.660;6.674;2023-05-27T13:43:28;25.40;1.00
11700;DHT22;5906;51.660;6.674;2023-05-27T13:45:55;25.40;1.00
11700;DHT22;5906;51.660;6.674;2023-05-27T13:48:23;25.50;1.00
11700;DHT22;5906;51.660;6.674;2023-05-27T13:50:50;25.30;1.00
11700;DHT22;5906;51.660;6.674;2023-05-27T13:53:17;25.30;1.00
11700;DHT22;5906;51.660;6.674;2023-05-27T13:55:44;25.40;1.00
11700;DHT22;5906;51.660;6.674;2023-05-27T13:58:12;25.30;1.00
11700;DHT22;5906;51.660;6.674;2023-05-27T14:00:39;25.30;1.00
11700;DHT22;5906;51.660;6.674;2023-05-27T14:03:06;25.30;1.00
11700;DHT22;5906;51.660;6.674;2023-05-27T14:05:33;25.00;1.00
11700;DHT22;5906;51.660;6.674;2023-05-27T14:08:02;24.90;1.00
11700;DHT22;5906;51.660;6.674;2023-05-27T14:10:33;25.10;1.00
11700;DHT22;5906;51.660;6.674;2023-05-27T14:13:00;25.20;1.00
11700;DHT22;5906;51.660;6.674;2023-05-27T14:15:29;25.30;1.00
11700;DHT22;5906;51.660;6.674;2023-05-27T14:17:58;25.20;1.00
11700;DHT22;5906;51.660;6.674;2023-05-27T14:20:28;25.20;1.00
11700;DHT22;5906;51.660;6.674;2023-05-27T14:22:55;25.00;1.00
11700;DHT22;5906;51.660;6.674;2023-05-27T14:25:23;25.00;1.00
11700;DHT22;5906;51.660;6.674;2023-05-27T14:27:51;25.10;1.00
11700;DHT22;5906;51.660;6.674;2023-05-27T14:30:18;25.30;1.00
11700;DHT22;5906;51.660;6.674;2023-05-27T14:32:44;25.00;1.00
11700;DHT22;5906;51.660;6.674;2023-05-27T14:35:12;25.10;1.00
11700;DHT22;5906;51.660;6.674;2023-05-27T14:37:38;25.10;1.00
11700;DHT22;5906;51.660;6.674;2023-05-27T14:40:06;25.00;1.00
11700;DHT22;5906;51.660;6.674;2023-05-27T14:42:33;25.30;1.00
11700;DHT22;5906;51.660;6.674;2023-05-27T14:45:00;25.50;1.00
11700;DHT22;5906;51.660;6.674;2023-05-27T14:47:27;25.60;1.00
11700;DHT22;5906;51.660;6.674;2023-05-27T14:49:54;25.70;1.00
11700;DHT22;5906;51.660;6.674;2023-05-27T14:52:21;25.70;1.00
11700;DHT22;5906;51.660;6.674;2023-05-27T14:54:48;25.50;1.00
11700;DHT22;5906;51.660;6.674;2023-05-27T14:57:15;25.60;1.00
11700;DHT22;5906;51.660;6.674;2023-05-27T14:59:42;25.60;1.00
11700;DHT22;5906;51.660;6.674;2023-05-27T15:02:09;25.50;1.00
11700;DHT22;5906;51.660;6.674;2023-05-27T15:04:36;25.60;1.00
11700;DHT22;5906;51.660;6.674;2023-05-27T15:07:03;25.70;1.00
11700;DHT22;5906;51.660;6.674;2023-05-27T15:09:31;25.50;1.00
11700;DHT22;5906;51.660;6.674;2023-05-27T15:11:58;25.30;1.00
11700;DHT22;5906;51.660;6.674;2023-05-27T15:14:26;25.40;1.00
11700;DHT22;5906;51.660;6.674;2023-05-27T15:16:53;25.10;1.00
11700;DHT22;5906;51.660;6.674;2023-05-27T15:19:21;25.10;1.00
11700;DHT22;5906;51.660;6.674;2023-05-27T15:21:48;25.00;1.00
11700;DHT22;5906;51.660;6.674;2023-05-27T15:24:15;24.90;1.00
11700;DHT22;5906;51.660;6.674;2023-05-27T15:26:42;25.10;1.00
11700;DHT22;5906;51.660;6.674;2023-05-27T15:29:09;25.30;1.00
11700;DHT22;5906;51.660;6.674;2023-05-27T15:31:37;25.30;1.00
11700;DHT22;5906;51.660;6.674;2023-05-27T15:34:04;25.30;1.00
11700;DHT22;5906;51.660;6.674;2023-05-27T15:36:31;25.10;1.00
11700;DHT22;5906;51.660;6.674;2023-05-27T15:38:58;25.10;1.00
11700;DHT22;5906;51.660;6.674;2023-05-27T15:41:26;25.10;1.00
11700;DHT22;5906;51.660;6.674;2023-05-27T15:43:53;25.10;1.00
11700;DHT22;5906;51.660;6.674;2023-05-27T15:46:23;25.10;1.00
11700;DHT22;5906;51.660;6.674;2023-05-27T15:48:50;25.00;1.00
11700;DHT22;5906;51.660;6.674;2023-05-27T15:51:18;24.90;1.00
11700;DHT22;5906;51.660;6.674;2023-05-27T15:53:45;24.80;1.00
11700;DHT22;5906;51.660;6.674;2023-05-27T15:56:12;24.60;1.00
11700;DHT22;5906;51.660;6.674;2023-05-27T15:58:39;24.60;1.00
11700;DHT22;5906;51.660;6.674;2023-05-27T16:01:06;24.70;1.00
11700;DHT22;5906;51.660;6.674;2023-05-27T16:03:33;24.60;1.00
11700;DHT22;5906;51.660;6.674;2023-05-27T16:06:00;24.50;1.00
11700;DHT22;5906;51.660;6.674;2023-05-27T16:08:32;24.40;1.00
11700;DHT22;5906;51.660;6.674;2023-05-27T16:10:59;24.40;1.00
11700;DHT22;5906;51.660;6.674;2023-05-27T16:13:26;24.50;1.00
11700;DHT22;5906;51.660;6.674;2023-05-27T16:15:54;24.60;1.00
11700;DHT22;5906;51.660;6.674;2023-05-27T16:18:23;24.60;1.00